Time;durP1;ratioP1;P1;durP2;ratioP2;P2;SDS_P1;SDS_P2;PMS_P1;PMS_P2;Temp;Humidity;BMP_temperature;BMP_pressure;BME280_temperature;BME280_humidity;BME280_pressure;Samples;Min_cycle;Max_cycle;Signal;HPM_P1;HPM_P2
2023/11/18 00:00:44;;;;;;;8.27;6.35;;;5.50;99.90;;;;;;2077291;28;20959;-74
2023/11/18 00:01:44;;;;;;;7.00;6.10;;;5.40;99.90;;;;;;2069284;28;20030;-72
2023/11/18 00:02:46;;;;;;;8.77;6.50;;;5.40;99.90;;;;;;2085879;28;20041;-73
2023/11/18 00:03:46;;;;;;;8.70;6.65;;;5.50;99.90;;;;;;2081659;28;20033;-74
2023/11/18 00:04:47;;;;;;;8.43;6.30;;;5.40;99.90;;;;;;2062525;28;20049;-72
2023/11/18 00:05:47;;;;;;;8.55;6.18;;;5.40;99.90;;;;;;2059999;28;20102;-73
2023/11/18 00:06:48;;;;;;;9.02;6.40;;;5.40;99.90;;;;;;2070524;28;20025;-73
2023/11/18 00:07:49;;;;;;;8.05;6.43;;;5.50;99.90;;;;;;2076401;28;20048;-73
2023/11/18 00:08:50;;;;;;;9.02;6.55;;;5.40;99.90;;;;;;2075350;28;20047;-72
2023/11/18 00:09:50;;;;;;;8.68;6.70;;;5.40;99.90;;;;;;2078912;28;20026;-73
2023/11/18 00:10:51;;;;;;;8.40;6.47;;;5.40;99.90;;;;;;2078673;28;20025;-73
2023/11/18 00:11:52;;;;;;;8.20;6.47;;;5.40;99.90;;;;;;2070471;28;20515;-72
2023/11/18 00:12:53;;;;;;;9.07;6.95;;;5.40;99.90;;;;;;2067031;28;20026;-73
2023/11/18 00:13:54;;;;;;;7.80;6.13;;;5.40;99.90;;;;;;2078964;28;20077;-73
2023/11/18 00:14:54;;;;;;;8.48;6.35;;;5.40;99.90;;;;;;2078569;28;20290;-72
2023/11/18 00:15:55;;;;;;;9.50;6.70;;;5.40;99.90;;;;;;2070112;28;20555;-73
2023/11/18 00:16:57;;;;;;;9.13;6.65;;;5.40;99.90;;;;;;2079821;28;20411;-77
2023/11/18 00:17:58;;;;;;;8.45;6.40;;;5.30;99.90;;;;;;2067986;28;20030;-74
2023/11/18 00:18:59;;;;;;;7.95;6.35;;;5.30;99.90;;;;;;2070507;28;20504;-74
2023/11/18 00:20:00;;;;;;;8.90;6.20;;;5.30;99.90;;;;;;2078845;28;20033;-77
2023/11/18 00:21:00;;;;;;;9.90;6.13;;;5.30;99.90;;;;;;2066527;28;20060;-75
2023/11/18 00:22:02;;;;;;;8.88;6.00;;;5.30;99.90;;;;;;2054608;28;20030;-77
2023/11/18 00:23:04;;;;;;;8.13;6.38;;;5.30;99.90;;;;;;2070043;28;20032;-78
2023/11/18 00:24:05;;;;;;;8.50;6.00;;;5.30;99.90;;;;;;2051297;28;20553;-79
2023/11/18 00:25:09;;;;;;;7.60;5.90;;;5.30;99.90;;;;;;2061801;28;20031;-77
2023/11/18 00:26:10;;;;;;;8.77;5.70;;;5.30;99.90;;;;;;2076606;28;20414;-76
2023/11/18 00:27:11;;;;;;;6.97;5.68;;;5.20;99.90;;;;;;2077485;28;20051;-77
2023/11/18 00:28:12;;;;;;;8.02;6.05;;;5.30;99.90;;;;;;2069105;28;20025;-77
2023/11/18 00:29:13;;;;;;;7.75;5.63;;;5.30;99.90;;;;;;2070328;28;20713;-77
2023/11/18 00:30:14;;;;;;;8.70;5.90;;;5.30;99.90;;;;;;2081248;28;20021;-76
2023/11/18 00:31:15;;;;;;;7.15;5.70;;;5.30;99.90;;;;;;2076884;28;20033;-78
2023/11/18 00:32:16;;;;;;;7.50;5.80;;;5.30;99.90;;;;;;2076696;28;20029;-78
2023/11/18 00:33:17;;;;;;;6.78;5.20;;;5.20;99.90;;;;;;2083161;28;20033;-77
2023/11/18 00:34:17;;;;;;;6.88;5.28;;;5.20;99.90;;;;;;2069065;28;20670;-78
2023/11/18 00:35:18;;;;;;;8.35;5.65;;;5.20;99.90;;;;;;2066444;28;20033;-78
2023/11/18 00:36:19;;;;;;;8.93;5.40;;;5.30;99.90;;;;;;2070480;28;20523;-77
2023/11/18 00:37:19;;;;;;;7.32;5.22;;;5.20;99.90;;;;;;2075233;28;20006;-77
2023/11/18 00:38:20;;;;;;;6.45;5.28;;;5.20;99.90;;;;;;2076908;28;20753;-76
2023/11/18 00:39:20;;;;;;;7.10;5.07;;;5.20;99.90;;;;;;2067996;28;20099;-77
2023/11/18 00:40:21;;;;;;;7.07;5.05;;;5.20;99.90;;;;;;2078972;28;20353;-78
2023/11/18 00:41:23;;;;;;;6.28;4.85;;;5.20;99.90;;;;;;2086268;28;20056;-75
2023/11/18 00:42:23;;;;;;;6.88;5.10;;;5.10;99.90;;;;;;2068338;28;20448;-77
2023/11/18 00:43:24;;;;;;;5.97;4.88;;;5.10;99.90;;;;;;2077685;28;20025;-77
2023/11/18 00:44:24;;;;;;;7.28;5.07;;;5.10;99.90;;;;;;2074209;28;20025;-77
2023/11/18 00:45:25;;;;;;;5.85;4.88;;;5.10;99.90;;;;;;2075310;28;20526;-77
2023/11/18 00:46:25;;;;;;;10.23;5.05;;;5.10;99.90;;;;;;2078617;28;20280;-77
2023/11/18 00:47:26;;;;;;;7.55;5.00;;;5.10;99.90;;;;;;2066162;28;20104;-77
2023/11/18 00:48:28;;;;;;;6.05;4.60;;;5.10;99.90;;;;;;2069603;28;20144;-75
2023/11/18 00:49:28;;;;;;;6.63;4.63;;;5.10;99.90;;;;;;2081294;28;20045;-76
2023/11/18 00:50:29;;;;;;;5.88;4.68;;;5.10;99.90;;;;;;2082864;28;20114;-76
2023/11/18 00:51:29;;;;;;;6.93;4.80;;;5.10;99.90;;;;;;2090401;28;20041;-76
2023/11/18 00:52:30;;;;;;;6.82;4.93;;;5.10;99.90;;;;;;2082896;28;20021;-76
2023/11/18 00:53:31;;;;;;;7.85;5.20;;;5.10;99.90;;;;;;2074364;28;20033;-76
2023/11/18 00:54:32;;;;;;;7.07;4.93;;;5.10;99.90;;;;;;2082054;28;20025;-76
2023/11/18 00:55:32;;;;;;;6.90;5.40;;;5.00;99.90;;;;;;2074375;28;20487;-75
2023/11/18 00:56:33;;;;;;;7.63;5.50;;;5.00;99.90;;;;;;2066456;28;20034;-76
2023/11/18 00:57:34;;;;;;;5.93;5.00;;;5.00;99.90;;;;;;2074239;28;20384;-77
2023/11/18 00:58:39;;;;;;;8.25;5.07;;;5.00;99.90;;;;;;2082736;28;20046;-77
2023/11/18 00:59:43;;;;;;;6.97;5.35;;;5.00;99.90;;;;;;2083203;28;20387;-76
2023/11/18 01:00:44;;;;;;;9.07;5.65;;;5.00;99.90;;;;;;2085309;28;20223;-76
2023/11/18 01:01:44;;;;;;;9.00;5.65;;;5.00;99.90;;;;;;2084278;28;20561;-77
2023/11/18 01:02:47;;;;;;;8.55;5.88;;;5.00;99.90;;;;;;2083542;28;20028;-77
2023/11/18 01:03:48;;;;;;;7.57;5.70;;;5.00;99.90;;;;;;2083134;28;20017;-77
2023/11/18 01:04:50;;;;;;;7.80;5.60;;;5.00;99.90;;;;;;2087075;28;20506;-76
2023/11/18 01:05:50;;;;;;;8.13;5.70;;;5.00;99.90;;;;;;2091021;28;20101;-76
2023/11/18 01:06:52;;;;;;;8.35;5.60;;;5.00;99.90;;;;;;2083593;28;20036;-77
2023/11/18 01:07:53;;;;;;;7.60;5.63;;;5.00;99.90;;;;;;2082311;28;20075;-77
2023/11/18 01:08:54;;;;;;;8.43;5.80;;;5.00;99.90;;;;;;2079493;28;20035;-76
2023/11/18 01:09:54;;;;;;;8.88;5.43;;;5.00;99.90;;;;;;2090406;28;20115;-76
2023/11/18 01:10:55;;;;;;;8.95;5.80;;;5.00;99.90;;;;;;2074341;28;20473;-76
2023/11/18 01:11:55;;;;;;;8.05;5.90;;;5.00;99.90;;;;;;2078332;28;20025;-76
2023/11/18 01:12:57;;;;;;;8.25;6.00;;;5.00;99.90;;;;;;2077443;28;20684;-76
2023/11/18 01:13:58;;;;;;;8.95;5.90;;;5.00;99.90;;;;;;2082753;28;20036;-76
2023/11/18 01:14:59;;;;;;;10.50;6.72;;;5.00;99.90;;;;;;2076827;28;20030;-75
2023/11/18 01:16:01;;;;;;;8.75;6.25;;;5.00;99.90;;;;;;2090487;28;20107;-76
2023/11/18 01:17:02;;;;;;;8.38;5.72;;;5.00;99.90;;;;;;2090489;28;20028;-74
2023/11/18 01:18:03;;;;;;;9.93;6.13;;;5.00;99.90;;;;;;2087171;28;20025;-76
2023/11/18 01:19:03;;;;;;;9.57;6.20;;;5.00;99.90;;;;;;2083852;28;20509;-76
2023/11/18 01:20:10;;;;;;;8.48;6.22;;;5.00;99.90;;;;;;2083350;28;20112;-76
2023/11/18 01:21:11;;;;;;;7.80;5.75;;;5.00;99.90;;;;;;2083424;28;20430;-77
2023/11/18 01:22:12;;;;;;;8.32;6.03;;;5.00;99.90;;;;;;2083244;28;20048;-77
2023/11/18 01:23:14;;;;;;;7.47;5.85;;;5.00;99.90;;;;;;2082612;28;20013;-76
2023/11/18 01:24:15;;;;;;;7.18;5.45;;;5.00;99.90;;;;;;2072951;28;20550;-77
2023/11/18 01:25:19;;;;;;;7.88;6.10;;;5.00;99.90;;;;;;2080028;28;20296;-77
2023/11/18 01:26:19;;;;;;;7.22;5.63;;;5.00;99.90;;;;;;2090682;28;20229;-77
2023/11/18 01:27:22;;;;;;;7.00;5.60;;;4.90;99.90;;;;;;2083227;28;20302;-77
2023/11/18 01:28:26;;;;;;;7.82;6.10;;;5.00;99.90;;;;;;2090701;28;20052;-76
2023/11/18 01:29:26;;;;;;;7.65;5.65;;;5.00;99.90;;;;;;2090482;28;20077;-77
2023/11/18 01:30:27;;;;;;;9.10;5.55;;;5.00;99.90;;;;;;2083428;28;20036;-77
2023/11/18 01:31:27;;;;;;;7.95;5.82;;;4.90;99.90;;;;;;2083423;28;20484;-76
2023/11/18 01:32:30;;;;;;;7.93;5.68;;;4.90;99.90;;;;;;2090714;28;20028;-77
2023/11/18 01:33:32;;;;;;;8.38;5.75;;;4.90;99.90;;;;;;2073875;28;20040;-76
2023/11/18 01:34:34;;;;;;;9.35;5.75;;;5.00;99.90;;;;;;2074392;28;20034;-75
2023/11/18 01:35:34;;;;;;;7.15;5.07;;;4.90;99.90;;;;;;2090616;28;20012;-76
2023/11/18 01:36:35;;;;;;;8.63;5.65;;;5.00;99.90;;;;;;2082376;28;20111;-76
2023/11/18 01:37:36;;;;;;;8.18;5.95;;;5.00;99.90;;;;;;2078348;28;20021;-76
2023/11/18 01:38:37;;;;;;;8.25;6.03;;;5.00;99.90;;;;;;2073788;28;20399;-76
2023/11/18 01:39:39;;;;;;;6.65;5.20;;;5.00;99.90;;;;;;2066319;28;20113;-76
2023/11/18 01:40:39;;;;;;;8.60;5.47;;;5.00;99.90;;;;;;2079212;28;20020;-76
2023/11/18 01:41:40;;;;;;;8.65;5.50;;;5.00;99.90;;;;;;2073227;28;20025;-77
2023/11/18 01:42:46;;;;;;;7.13;5.22;;;5.00;99.90;;;;;;2067222;28;20026;-77
2023/11/18 01:43:46;;;;;;;8.02;5.43;;;5.00;99.90;;;;;;2081601;28;20024;-76
2023/11/18 01:44:48;;;;;;;8.93;6.00;;;4.90;99.90;;;;;;2075927;28;20026;-76
2023/11/18 01:45:48;;;;;;;7.70;5.90;;;4.90;99.90;;;;;;2082551;28;20067;-76
2023/11/18 01:46:50;;;;;;;8.13;5.40;;;5.00;99.90;;;;;;2088347;28;20039;-76
2023/11/18 01:47:51;;;;;;;8.27;5.80;;;5.00;99.90;;;;;;2084863;28;20422;-77
2023/11/18 01:48:52;;;;;;;9.43;5.97;;;5.00;99.90;;;;;;2090351;28;20036;-76
2023/11/18 01:49:53;;;;;;;9.65;5.75;;;5.00;99.90;;;;;;2077775;28;20879;-77
2023/11/18 01:50:57;;;;;;;7.85;5.85;;;5.00;99.90;;;;;;2086328;28;20095;-77
2023/11/18 01:52:01;;;;;;;7.07;5.18;;;5.00;99.90;;;;;;2083202;28;20033;-76
2023/11/18 01:53:02;;;;;;;8.60;5.47;;;5.00;99.90;;;;;;2083116;28;20040;-76
2023/11/18 01:54:05;;;;;;;6.82;5.00;;;5.00;99.90;;;;;;2079272;28;20045;-77
2023/11/18 01:55:06;;;;;;;7.70;5.25;;;5.00;99.90;;;;;;2082186;28;20021;-77
2023/11/18 01:56:08;;;;;;;7.75;5.68;;;4.90;99.90;;;;;;2074530;28;20597;-77
2023/11/18 01:57:09;;;;;;;9.95;5.50;;;5.00;99.90;;;;;;2074544;28;20399;-77
2023/11/18 01:58:10;;;;;;;7.15;5.57;;;4.90;99.90;;;;;;2082426;28;20021;-76
2023/11/18 01:59:17;;;;;;;7.55;5.30;;;4.90;99.90;;;;;;2078558;28;20585;-76
2023/11/18 02:00:18;;;;;;;8.05;5.88;;;4.90;99.90;;;;;;2078232;28;20040;-77
2023/11/18 02:01:20;;;;;;;7.05;5.25;;;4.90;99.90;;;;;;2076322;28;20145;-77
2023/11/18 02:02:21;;;;;;;6.88;5.35;;;4.90;99.90;;;;;;2083347;28;20021;-77
2023/11/18 02:03:21;;;;;;;7.38;5.43;;;4.90;99.90;;;;;;2082957;28;20021;-77
2023/11/18 02:04:22;;;;;;;8.15;5.75;;;4.90;99.90;;;;;;2090165;28;20538;-77
2023/11/18 02:05:23;;;;;;;9.25;5.93;;;4.90;99.90;;;;;;2088300;28;20052;-78
2023/11/18 02:06:23;;;;;;;7.38;5.45;;;5.00;99.90;;;;;;2078228;28;20506;-77
2023/11/18 02:07:24;;;;;;;7.70;5.55;;;5.00;99.90;;;;;;2082421;28;20039;-77
2023/11/18 02:08:25;;;;;;;7.85;5.75;;;5.00;99.90;;;;;;2086453;28;20510;-78
2023/11/18 02:09:28;;;;;;;8.18;6.00;;;5.00;99.90;;;;;;2078140;28;20132;-77
2023/11/18 02:10:29;;;;;;;7.93;5.57;;;5.00;99.90;;;;;;2082664;28;20035;-77
2023/11/18 02:11:40;;;;;;;7.38;5.60;;;5.00;99.90;;;;;;2083061;28;20471;-77
2023/11/18 02:13:06;;;;;;;7.55;5.57;;;5.00;99.90;;;;;;2082431;28;20119;-76
2023/11/18 02:14:12;;;;;;;9.48;5.40;;;5.00;99.90;;;;;;2078324;28;20116;-76
2023/11/18 02:15:15;;;;;;;7.10;5.30;;;4.90;99.90;;;;;;2082398;28;20479;-77
2023/11/18 02:16:19;;;;;;;8.45;5.82;;;4.90;99.90;;;;;;2083108;28;20049;-78
2023/11/18 02:17:25;;;;;;;8.07;5.72;;;4.90;99.90;;;;;;2090449;28;20029;-76
2023/11/18 02:18:29;;;;;;;8.05;5.93;;;4.90;99.90;;;;;;2089748;28;20032;-77
2023/11/18 02:19:30;;;;;;;7.68;5.38;;;4.90;99.90;;;;;;2083139;28;20112;-77
2023/11/18 02:20:33;;;;;;;8.27;5.85;;;4.90;99.90;;;;;;2090544;28;20032;-76
2023/11/18 02:21:35;;;;;;;9.15;5.72;;;4.90;99.90;;;;;;2090040;28;20400;-77
2023/11/18 02:22:36;;;;;;;8.68;5.82;;;4.90;99.90;;;;;;2086616;28;20122;-77
2023/11/18 02:23:37;;;;;;;8.82;5.90;;;5.00;99.90;;;;;;2090493;28;20029;-77
2023/11/18 02:24:40;;;;;;;8.52;6.15;;;4.90;99.90;;;;;;2090015;28;20036;-77
2023/11/18 02:25:46;;;;;;;8.68;5.50;;;4.90;99.90;;;;;;2086335;28;20035;-76
2023/11/18 02:26:46;;;;;;;8.73;5.90;;;4.90;99.90;;;;;;2088232;28;20024;-77
2023/11/18 02:27:48;;;;;;;8.60;5.72;;;4.90;99.90;;;;;;2091823;28;20507;-77
2023/11/18 02:28:53;;;;;;;8.32;5.95;;;4.90;99.90;;;;;;2079790;28;20033;-78
2023/11/18 02:29:54;;;;;;;8.48;6.18;;;4.90;99.90;;;;;;2068905;28;20037;-77
2023/11/18 02:31:03;;;;;;;8.30;5.82;;;4.90;99.90;;;;;;2074102;28;20411;-77
2023/11/18 02:32:34;;;;;;;9.57;6.30;;;4.90;99.90;;;;;;2083505;28;20028;-77
2023/11/18 02:33:44;;;;;;;9.23;5.93;;;4.90;99.90;;;;;;2058207;28;20061;-77
2023/11/18 02:35:02;;;;;;;10.43;6.03;;;4.90;99.90;;;;;;2073818;28;20462;-76
2023/11/18 02:36:31;;;;;;;8.82;6.25;;;5.00;99.90;;;;;;2071294;28;20156;-77
2023/11/18 02:37:33;;;;;;;7.72;5.32;;;5.00;99.90;;;;;;2078542;28;20021;-77
2023/11/18 02:38:40;;;;;;;8.05;6.03;;;5.00;99.90;;;;;;2071526;28;20077;-78
2023/11/18 02:39:45;;;;;;;7.72;5.90;;;5.00;99.90;;;;;;2068830;28;20053;-77
2023/11/18 02:40:48;;;;;;;8.10;5.97;;;5.00;99.90;;;;;;2082400;28;20025;-77
2023/11/18 02:41:52;;;;;;;7.75;5.80;;;5.00;99.90;;;;;;2085789;28;20050;-78
2023/11/18 02:42:54;;;;;;;8.60;6.05;;;5.00;99.90;;;;;;2081857;28;20025;-78
2023/11/18 02:43:57;;;;;;;9.45;6.20;;;5.00;99.90;;;;;;2083200;28;20025;-76
2023/11/18 02:44:59;;;;;;;8.15;6.05;;;5.00;99.90;;;;;;2084713;28;20071;-77
2023/11/18 02:46:00;;;;;;;8.40;5.97;;;5.00;99.90;;;;;;2087043;28;20024;-77
2023/11/18 02:47:01;;;;;;;8.75;5.95;;;5.00;99.90;;;;;;2078899;28;20408;-78
2023/11/18 02:48:06;;;;;;;8.65;6.20;;;5.00;99.90;;;;;;2079596;28;20036;-77
2023/11/18 02:49:08;;;;;;;8.35;6.00;;;4.90;99.90;;;;;;2083107;28;20446;-77
2023/11/18 02:50:10;;;;;;;8.00;5.97;;;4.90;99.90;;;;;;2075723;28;20124;-77
2023/11/18 02:51:12;;;;;;;8.82;6.22;;;4.90;99.90;;;;;;2092112;28;20748;-77
2023/11/18 02:52:13;;;;;;;9.25;6.50;;;4.90;99.90;;;;;;2092043;28;20518;-78
2023/11/18 02:53:13;;;;;;;8.80;6.55;;;4.90;99.90;;;;;;2083085;28;20627;-77
2023/11/18 02:54:16;;;;;;;8.88;6.05;;;4.90;99.90;;;;;;2081451;28;20029;-78
2023/11/18 02:55:17;;;;;;;8.40;5.90;;;4.80;99.90;;;;;;2080188;28;20029;-77
2023/11/18 02:56:18;;;;;;;9.43;6.35;;;4.80;99.90;;;;;;2088107;28;20375;-77
2023/11/18 02:57:19;;;;;;;7.35;5.75;;;4.80;99.90;;;;;;2075950;28;20030;-77
2023/11/18 02:58:20;;;;;;;8.95;6.20;;;4.80;99.90;;;;;;2075519;28;20049;-77
2023/11/18 02:59:21;;;;;;;9.40;6.35;;;4.80;99.90;;;;;;2073933;28;20030;-77
2023/11/18 03:00:21;;;;;;;8.70;5.95;;;4.70;99.90;;;;;;2082174;28;20513;-77
2023/11/18 03:01:22;;;;;;;8.98;6.28;;;4.70;99.90;;;;;;2082716;28;20314;-78
2023/11/18 03:02:23;;;;;;;8.93;6.00;;;4.70;99.90;;;;;;2092031;28;20485;-77
2023/11/18 03:03:24;;;;;;;8.10;6.13;;;4.70;99.90;;;;;;2092328;28;20028;-77
2023/11/18 03:04:24;;;;;;;9.82;6.60;;;4.70;99.90;;;;;;2075315;28;20033;-78
2023/11/18 03:05:26;;;;;;;10.07;6.15;;;4.60;99.90;;;;;;2074722;28;20104;-78
2023/11/18 03:06:27;;;;;;;8.90;6.10;;;4.60;99.90;;;;;;2081251;28;20072;-78
2023/11/18 03:07:28;;;;;;;9.52;6.47;;;4.60;99.90;;;;;;2086347;28;20037;-78
2023/11/18 03:08:29;;;;;;;8.30;6.10;;;4.60;99.90;;;;;;2086664;28;20105;-78
2023/11/18 03:09:34;;;;;;;9.68;6.78;;;4.60;99.90;;;;;;2083870;28;20518;-78
2023/11/18 03:10:35;;;;;;;9.15;6.15;;;4.60;99.90;;;;;;2076285;28;20564;-78
2023/11/18 03:11:35;;;;;;;10.88;6.13;;;4.60;99.90;;;;;;2077173;28;20745;-77
2023/11/18 03:12:37;;;;;;;8.85;6.55;;;4.60;99.90;;;;;;2072809;28;20596;-78
2023/11/18 03:13:38;;;;;;;9.38;6.57;;;4.60;99.90;;;;;;2080813;28;20493;-76
2023/11/18 03:14:39;;;;;;;9.52;6.63;;;4.60;99.90;;;;;;2084744;28;20044;-77
2023/11/18 03:15:40;;;;;;;9.10;6.50;;;4.60;99.90;;;;;;2081146;28;20013;-77
2023/11/18 03:16:40;;;;;;;10.60;6.55;;;4.60;99.90;;;;;;2084754;28;20383;-78
2023/11/18 03:17:41;;;;;;;9.02;6.47;;;4.60;99.90;;;;;;2085568;28;20044;-78
2023/11/18 03:18:42;;;;;;;8.70;6.57;;;4.60;99.90;;;;;;2082193;28;20119;-78
2023/11/18 03:19:43;;;;;;;8.70;6.22;;;4.60;99.90;;;;;;2080668;28;20673;-77
2023/11/18 03:20:44;;;;;;;8.98;6.07;;;4.60;99.90;;;;;;2072360;28;20041;-78
2023/11/18 03:21:50;;;;;;;11.30;6.57;;;4.60;99.90;;;;;;2066592;28;20057;-77
2023/11/18 03:22:51;;;;;;;8.05;6.30;;;4.70;99.90;;;;;;2080070;28;20094;-78
2023/11/18 03:23:53;;;;;;;9.55;6.70;;;4.70;99.90;;;;;;2092882;28;20537;-78
2023/11/18 03:24:53;;;;;;;9.32;6.32;;;4.70;99.90;;;;;;2093969;28;20021;-78
2023/11/18 03:25:55;;;;;;;9.68;6.53;;;4.70;99.90;;;;;;2091037;28;20537;-78
2023/11/18 03:26:56;;;;;;;9.48;6.90;;;4.70;99.90;;;;;;2087609;28;20017;-77
2023/11/18 03:27:56;;;;;;;10.27;6.68;;;4.70;99.90;;;;;;2082977;28;20482;-76
2023/11/18 03:28:57;;;;;;;9.73;6.40;;;4.70;99.90;;;;;;2093656;28;20116;-77
2023/11/18 03:29:57;;;;;;;10.82;6.82;;;4.70;99.90;;;;;;2084828;28;20514;-77
2023/11/18 03:30:58;;;;;;;9.93;6.78;;;4.70;99.90;;;;;;2079529;28;20033;-77
2023/11/18 03:31:59;;;;;;;10.50;7.25;;;4.70;99.90;;;;;;2085957;28;20032;-77
2023/11/18 03:33:00;;;;;;;9.32;6.78;;;4.60;99.90;;;;;;2083683;28;20107;-78
2023/11/18 03:34:00;;;;;;;9.82;7.00;;;4.60;99.90;;;;;;2080141;28;20029;-76
2023/11/18 03:35:02;;;;;;;10.68;6.97;;;4.60;99.90;;;;;;2081027;28;20036;-77
2023/11/18 03:36:04;;;;;;;10.05;6.88;;;4.60;99.90;;;;;;2064528;28;20061;-77
2023/11/18 03:37:04;;;;;;;9.40;6.65;;;4.60;99.90;;;;;;2074786;28;20033;-76
2023/11/18 03:38:05;;;;;;;9.93;6.43;;;4.60;99.90;;;;;;2080205;28;20160;-78
2023/11/18 03:39:06;;;;;;;10.48;6.80;;;4.60;99.90;;;;;;2091471;28;20023;-78
2023/11/18 03:40:11;;;;;;;9.68;6.90;;;4.60;99.90;;;;;;2088260;28;20526;-78
2023/11/18 03:41:13;;;;;;;11.73;7.25;;;4.60;99.90;;;;;;2087353;28;20048;-76
2023/11/18 03:42:13;;;;;;;9.25;6.72;;;4.60;99.90;;;;;;2083918;28;20529;-76
2023/11/18 03:43:14;;;;;;;10.02;7.30;;;4.60;99.90;;;;;;2083614;28;20060;-77
2023/11/18 03:44:14;;;;;;;9.93;6.78;;;4.60;99.90;;;;;;2091509;28;20482;-77
2023/11/18 03:45:17;;;;;;;9.23;6.75;;;4.70;99.90;;;;;;2091797;28;20068;-76
2023/11/18 03:46:18;;;;;;;9.50;6.60;;;4.60;99.90;;;;;;2084311;28;20048;-77
2023/11/18 03:47:18;;;;;;;10.35;6.88;;;4.60;99.90;;;;;;2087150;28;20071;-76
2023/11/18 03:48:19;;;;;;;9.90;7.32;;;4.60;99.90;;;;;;2083486;28;20192;-77
2023/11/18 03:49:20;;;;;;;12.38;6.85;;;4.70;99.90;;;;;;2075091;28;20033;-77
2023/11/18 03:50:21;;;;;;;9.75;7.15;;;4.70;99.90;;;;;;2072446;28;20507;-75
2023/11/18 03:51:22;;;;;;;10.07;6.95;;;4.70;99.90;;;;;;2074843;28;20030;-75
2023/11/18 03:52:23;;;;;;;10.07;7.10;;;4.70;99.90;;;;;;2083419;28;20021;-77
2023/11/18 03:53:23;;;;;;;9.30;6.63;;;4.70;99.90;;;;;;2078891;28;20048;-76
2023/11/18 03:54:24;;;;;;;9.52;7.05;;;4.70;99.90;;;;;;2087273;28;20075;-76
2023/11/18 03:55:25;;;;;;;10.60;6.82;;;4.70;99.90;;;;;;2091713;28;20027;-75
2023/11/18 03:56:26;;;;;;;9.90;7.10;;;4.70;99.90;;;;;;2083730;28;20017;-78
2023/11/18 03:57:28;;;;;;;10.48;7.20;;;4.70;99.90;;;;;;2079926;28;20029;-78
2023/11/18 03:58:28;;;;;;;10.07;6.88;;;4.70;99.90;;;;;;2084094;28;20446;-78
2023/11/18 03:59:29;;;;;;;9.07;6.68;;;4.70;99.90;;;;;;2091405;28;20946;-78
2023/11/18 04:00:31;;;;;;;11.20;7.50;;;4.70;99.90;;;;;;2090661;28;20033;-78
2023/11/18 04:01:32;;;;;;;10.00;7.00;;;4.70;99.90;;;;;;2091407;28;20395;-76
2023/11/18 04:02:35;;;;;;;9.93;7.10;;;4.70;99.90;;;;;;2091650;28;20039;-77
2023/11/18 04:03:36;;;;;;;9.18;6.78;;;4.70;99.90;;;;;;2083291;28;20283;-76
2023/11/18 04:04:38;;;;;;;9.80;7.15;;;4.70;99.90;;;;;;2081583;28;20493;-76
2023/11/18 04:05:39;;;;;;;10.95;7.10;;;4.70;99.90;;;;;;2091526;28;20035;-77
2023/11/18 04:06:40;;;;;;;10.10;7.00;;;4.70;99.90;;;;;;2087174;28;20406;-77
2023/11/18 04:07:41;;;;;;;10.75;7.15;;;4.60;99.90;;;;;;2079781;28;20032;-76
2023/11/18 04:08:45;;;;;;;10.55;7.05;;;4.70;99.90;;;;;;2091556;28;20024;-76
2023/11/18 04:09:46;;;;;;;10.68;7.13;;;4.70;99.90;;;;;;2086560;28;20427;-77
2023/11/18 04:10:46;;;;;;;11.63;7.40;;;4.60;99.90;;;;;;2087157;28;20029;-77
2023/11/18 04:11:47;;;;;;;11.18;6.95;;;4.60;99.90;;;;;;2090512;28;20097;-77
2023/11/18 04:12:48;;;;;;;10.63;7.43;;;4.60;99.90;;;;;;2078892;28;20024;-76
2023/11/18 04:13:48;;;;;;;10.80;7.38;;;4.60;99.90;;;;;;2077867;28;20052;-77
2023/11/18 04:14:49;;;;;;;11.57;7.15;;;4.60;99.90;;;;;;2086976;28;20032;-76
2023/11/18 04:15:50;;;;;;;10.25;7.00;;;4.60;99.90;;;;;;2084168;28;20037;-75
2023/11/18 04:16:50;;;;;;;10.52;7.30;;;4.60;99.90;;;;;;2083252;28;20021;-78
2023/11/18 04:17:52;;;;;;;10.20;7.13;;;4.60;99.90;;;;;;2088489;28;20032;-78
2023/11/18 04:18:52;;;;;;;11.35;6.90;;;4.60;99.90;;;;;;2091019;28;20614;-76
2023/11/18 04:19:55;;;;;;;10.88;7.60;;;4.60;99.90;;;;;;2091202;28;20111;-77
2023/11/18 04:20:57;;;;;;;10.20;7.18;;;4.60;99.90;;;;;;2083884;28;20040;-77
2023/11/18 04:21:58;;;;;;;9.73;6.93;;;4.60;99.90;;;;;;2083013;28;20033;-77
2023/11/18 04:22:59;;;;;;;10.43;7.38;;;4.60;99.90;;;;;;2078887;28;20422;-76
2023/11/18 04:24:00;;;;;;;10.90;7.35;;;4.60;99.90;;;;;;2068362;28;20034;-76
2023/11/18 04:25:00;;;;;;;10.18;6.90;;;4.60;99.90;;;;;;2066321;28;20570;-76
2023/11/18 04:26:02;;;;;;;12.18;7.75;;;4.60;99.90;;;;;;2073219;28;20048;-78
2023/11/18 04:27:03;;;;;;;11.85;7.25;;;4.60;99.90;;;;;;2078934;28;20078;-77
2023/11/18 04:28:04;;;;;;;13.23;7.40;;;4.70;99.90;;;;;;2075615;28;20098;-76
2023/11/18 04:29:04;;;;;;;9.70;7.18;;;4.70;99.90;;;;;;2090160;28;20028;-76
2023/11/18 04:30:06;;;;;;;10.27;7.50;;;4.70;99.90;;;;;;2082845;28;20032;-76
2023/11/18 04:31:06;;;;;;;11.52;7.32;;;4.70;99.90;;;;;;2074694;28;20108;-76
2023/11/18 04:32:10;;;;;;;11.65;7.30;;;4.70;99.90;;;;;;2083083;28;20025;-76
2023/11/18 04:33:14;;;;;;;10.20;7.13;;;4.60;99.90;;;;;;2083631;28;20028;-75
2023/11/18 04:34:14;;;;;;;10.70;7.10;;;4.70;99.90;;;;;;2083933;28;20025;-76
2023/11/18 04:35:15;;;;;;;11.48;7.57;;;4.70;99.90;;;;;;2082515;28;20280;-76
2023/11/18 04:36:16;;;;;;;10.73;7.30;;;4.70;99.90;;;;;;2075167;28;20033;-77
2023/11/18 04:37:17;;;;;;;11.40;7.50;;;4.60;99.90;;;;;;2087369;28;20160;-77
2023/11/18 04:38:19;;;;;;;10.13;7.40;;;4.60;99.90;;;;;;2090269;28;20099;-77
2023/11/18 04:39:20;;;;;;;10.60;7.30;;;4.60;99.90;;;;;;2088120;28;20028;-77
2023/11/18 04:40:23;;;;;;;10.23;7.43;;;4.70;99.90;;;;;;2090739;28;20116;-77
2023/11/18 04:41:24;;;;;;;10.90;6.93;;;4.70;99.90;;;;;;2088684;28;20260;-77
2023/11/18 04:42:24;;;;;;;11.10;6.95;;;4.70;99.90;;;;;;2087344;28;20115;-76
2023/11/18 04:43:25;;;;;;;11.50;7.53;;;4.70;99.90;;;;;;2082851;28;20037;-77
2023/11/18 04:44:25;;;;;;;10.50;7.03;;;4.70;99.90;;;;;;2079412;28;20538;-76
2023/11/18 04:45:26;;;;;;;11.25;7.10;;;4.70;99.90;;;;;;2083683;28;20270;-77
2023/11/18 04:46:26;;;;;;;9.65;6.85;;;4.70;99.90;;;;;;2083660;28;20024;-77
2023/11/18 04:47:27;;;;;;;11.82;7.38;;;4.70;99.90;;;;;;2082745;28;20029;-76
2023/11/18 04:48:28;;;;;;;11.25;7.18;;;4.70;99.90;;;;;;2074293;28;20440;-78
2023/11/18 04:49:29;;;;;;;10.43;7.50;;;4.70;99.90;;;;;;2073674;28;20510;-77
2023/11/18 04:50:30;;;;;;;12.63;7.75;;;4.70;99.90;;;;;;2070642;28;20026;-77
2023/11/18 04:51:30;;;;;;;11.27;7.03;;;4.70;99.90;;;;;;2082335;28;20354;-77
2023/11/18 04:52:34;;;;;;;10.82;7.40;;;4.70;99.90;;;;;;2083440;28;21043;-75
2023/11/18 04:53:35;;;;;;;10.65;6.97;;;4.70;99.90;;;;;;2082057;28;20082;-76
2023/11/18 04:54:36;;;;;;;12.68;7.65;;;4.70;99.90;;;;;;2079567;28;20037;-76
2023/11/18 04:55:39;;;;;;;10.55;7.40;;;4.70;99.90;;;;;;2078174;28;20021;-76
2023/11/18 04:56:40;;;;;;;11.48;7.97;;;4.70;99.90;;;;;;2082558;28;20467;-76
2023/11/18 04:57:41;;;;;;;10.93;7.50;;;4.70;99.90;;;;;;2083561;28;20143;-77
2023/11/18 04:58:42;;;;;;;12.80;7.90;;;4.70;99.90;;;;;;2086980;28;20410;-74
2023/11/18 04:59:43;;;;;;;11.27;7.47;;;4.70;99.90;;;;;;2082728;28;20033;-76
2023/11/18 05:00:44;;;;;;;12.15;7.70;;;4.70;99.90;;;;;;2075519;28;20045;-77
2023/11/18 05:01:45;;;;;;;11.88;8.23;;;4.70;99.90;;;;;;2074975;28;20096;-76
2023/11/18 05:02:47;;;;;;;12.30;7.93;;;4.70;99.90;;;;;;2074063;28;20515;-76
2023/11/18 05:03:48;;;;;;;13.60;7.70;;;4.70;99.90;;;;;;2081294;28;20043;-76
2023/11/18 05:04:48;;;;;;;11.27;7.88;;;4.70;99.90;;;;;;2079674;28;20029;-76
2023/11/18 05:05:49;;;;;;;11.35;7.47;;;4.70;99.90;;;;;;2083364;28;20419;-76
2023/11/18 05:06:51;;;;;;;11.20;7.70;;;4.70;99.90;;;;;;2090927;28;20744;-77
2023/11/18 05:07:51;;;;;;;11.25;7.25;;;4.70;99.90;;;;;;2090694;28;20086;-78
2023/11/18 05:08:52;;;;;;;10.90;7.80;;;4.70;99.90;;;;;;2078776;28;20083;-78
2023/11/18 05:09:54;;;;;;;13.27;7.65;;;4.70;99.90;;;;;;2078998;28;20558;-77
2023/11/18 05:10:54;;;;;;;12.65;7.88;;;4.70;99.90;;;;;;2083145;28;20056;-76
2023/11/18 05:11:57;;;;;;;11.82;8.02;;;4.70;99.90;;;;;;2082763;28;20033;-76
2023/11/18 05:12:57;;;;;;;11.65;7.68;;;4.70;99.90;;;;;;2082660;28;20033;-77
2023/11/18 05:13:59;;;;;;;11.40;7.65;;;4.70;99.90;;;;;;2081201;28;20421;-77
2023/11/18 05:15:00;;;;;;;11.00;7.78;;;4.70;99.90;;;;;;2090827;28;20020;-77
2023/11/18 05:16:02;;;;;;;10.85;7.63;;;4.70;99.90;;;;;;2090913;28;20025;-78
2023/11/18 05:17:04;;;;;;;10.90;7.63;;;4.70;99.90;;;;;;2090834;28;20067;-77
2023/11/18 05:18:08;;;;;;;11.98;7.53;;;4.70;99.90;;;;;;2090795;28;20085;-78
2023/11/18 05:19:08;;;;;;;11.50;8.00;;;4.80;99.90;;;;;;2091314;28;20021;-76
2023/11/18 05:20:10;;;;;;;12.88;7.60;;;4.70;99.90;;;;;;2090979;28;20024;-76
2023/11/18 05:21:11;;;;;;;12.30;7.90;;;4.70;99.90;;;;;;2074630;28;20044;-77
2023/11/18 05:22:12;;;;;;;10.85;7.32;;;4.80;99.90;;;;;;2074561;28;20053;-77
2023/11/18 05:23:13;;;;;;;11.15;7.32;;;4.80;99.90;;;;;;2070323;28;20089;-75
2023/11/18 05:24:14;;;;;;;10.93;7.80;;;4.80;99.90;;;;;;2070632;28;20090;-76